createdAt,value
2022-10-06T00:02:12.160Z,70.50
2022-10-06T00:04:38.863Z,70.40
2022-10-06T00:07:05.578Z,70.30
2022-10-06T00:09:32.343Z,70.40
2022-10-06T00:11:59.155Z,70.70
2022-10-06T00:14:26.190Z,71.30
2022-10-06T00:16:52.966Z,71.20
2022-10-06T00:19:19.735Z,70.50
2022-10-06T00:21:46.479Z,70.30
2022-10-06T00:24:13.239Z,70.40
2022-10-06T00:26:39.929Z,70.70
2022-10-06T00:29:06.842Z,70.40
2022-10-06T00:31:34.664Z,71.00
2022-10-06T00:34:01.473Z,70.50
2022-10-06T00:36:28.666Z,71.20
2022-10-06T00:38:56.659Z,70.70
2022-10-06T00:41:23.398Z,70.90
2022-10-06T00:43:52.205Z,70.70
2022-10-06T00:46:24.910Z,70.70
2022-10-06T00:49:00.626Z,70.80
2022-10-06T00:51:28.832Z,70.80
2022-10-06T00:53:56.089Z,70.70
2022-10-06T00:56:22.883Z,70.70
2022-10-06T00:58:50.439Z,70.50
2022-10-06T01:01:17.530Z,71.30
2022-10-06T01:03:47.213Z,71.30
2022-10-06T01:06:13.893Z,71.10
2022-10-06T01:08:40.892Z,71.80
2022-10-06T01:11:13.228Z,71.00
2022-10-06T01:13:40.910Z,71.00
2022-10-06T01:16:23.299Z,71.30
2022-10-06T01:18:50.154Z,71.10
2022-10-06T01:21:31.383Z,71.00
2022-10-06T01:23:58.512Z,71.10
2022-10-06T01:26:28.082Z,71.20
2022-10-06T01:28:54.928Z,71.10
2022-10-06T01:31:21.832Z,71.10
2022-10-06T01:33:52.269Z,71.20
2022-10-06T01:36:19.330Z,71.20
2022-10-06T01:38:46.093Z,71.20
2022-10-06T01:41:12.933Z,72.10
2022-10-06T01:43:39.628Z,71.70
2022-10-06T01:46:06.367Z,71.60
2022-10-06T01:48:35.142Z,71.60
2022-10-06T01:51:01.836Z,72.00
2022-10-06T01:53:28.516Z,72.20
2022-10-06T01:55:59.455Z,71.70
2022-10-06T01:58:26.957Z,71.50
2022-10-06T02:00:54.223Z,71.90
2022-10-06T02:03:21.034Z,71.50
2022-10-06T02:05:47.737Z,71.70
2022-10-06T02:08:14.544Z,72.70
2022-10-06T02:10:41.274Z,71.70
2022-10-06T02:13:08.054Z,71.70
2022-10-06T02:15:34.874Z,71.50
2022-10-06T02:18:01.736Z,71.80
2022-10-06T02:20:28.545Z,71.70
2022-10-06T02:22:55.276Z,71.50
2022-10-06T02:25:21.993Z,71.50
2022-10-06T02:27:48.640Z,71.60
2022-10-06T02:30:16.001Z,72.10
2022-10-06T02:32:44.165Z,71.60
2022-10-06T02:35:13.108Z,71.60
2022-10-06T02:37:40.894Z,71.80
2022-10-06T02:40:08.579Z,71.70
2022-10-06T02:42:36.270Z,71.60
2022-10-06T02:45:04.520Z,71.90
2022-10-06T02:47:32.608Z,71.60
2022-10-06T02:50:00.514Z,72.20
2022-10-06T02:52:30.835Z,72.30
2022-10-06T02:54:57.479Z,71.70
2022-10-06T02:57:24.164Z,72.30
2022-10-06T02:59:50.948Z,71.60
2022-10-06T03:02:17.797Z,71.60
2022-10-06T03:04:44.648Z,73.00
2022-10-06T03:07:11.572Z,71.60
2022-10-06T03:09:38.229Z,71.70
2022-10-06T03:12:04.990Z,72.20
2022-10-06T03:14:31.729Z,71.60
2022-10-06T03:16:58.473Z,71.30
2022-10-06T03:19:25.235Z,71.70
2022-10-06T03:21:51.970Z,71.60
2022-10-06T03:24:18.851Z,71.60
2022-10-06T03:26:46.313Z,71.50
2022-10-06T03:29:13.528Z,71.80
2022-10-06T03:31:40.315Z,71.70
2022-10-06T03:34:07.177Z,71.90
2022-10-06T03:36:34.493Z,71.80
2022-10-06T03:39:04.624Z,71.70
2022-10-06T03:41:32.563Z,72.00
2022-10-06T03:43:59.735Z,72.10
2022-10-06T03:46:27.795Z,71.70
2022-10-06T03:48:54.606Z,72.60
2022-10-06T03:51:23.380Z,73.10
2022-10-06T03:53:51.108Z,71.30
2022-10-06T03:56:22.559Z,71.10
2022-10-06T03:58:50.712Z,71.20
2022-10-06T04:01:23.520Z,71.00
2022-10-06T04:03:53.425Z,70.70
2022-10-06T04:06:20.216Z,71.10
2022-10-06T04:08:47.982Z,70.60
2022-10-06T04:11:15.833Z,70.70
2022-10-06T04:13:43.165Z,71.60
2022-10-06T04:16:11.049Z,70.70
2022-10-06T04:18:38.346Z,71.30
2022-10-06T04:21:05.368Z,72.20
2022-10-06T04:23:32.414Z,71.00
2022-10-06T04:25:59.927Z,70.70
2022-10-06T04:28:27.275Z,70.50
2022-10-06T04:30:57.989Z,70.30
2022-10-06T04:33:24.989Z,70.30
2022-10-06T04:35:59.858Z,70.30
2022-10-06T04:38:27.835Z,70.30
2022-10-06T04:40:54.914Z,70.20
2022-10-06T04:43:21.647Z,69.80
2022-10-06T04:45:55.664Z,70.30
2022-10-06T04:48:22.487Z,70.30
2022-10-06T04:50:59.363Z,70.30
2022-10-06T04:53:26.368Z,70.40
2022-10-06T04:55:59.784Z,70.40
2022-10-06T04:58:27.573Z,70.40
2022-10-06T05:00:54.561Z,70.30
2022-10-06T05:03:21.268Z,70.30
2022-10-06T05:05:47.998Z,70.30
2022-10-06T05:08:14.945Z,70.40
2022-10-06T05:10:42.188Z,70.50
2022-10-06T05:13:12.653Z,70.60
2022-10-06T05:15:39.724Z,70.50
2022-10-06T05:18:06.450Z,70.50
2022-10-06T05:20:33.289Z,70.60
2022-10-06T05:23:00.022Z,70.20
2022-10-06T05:25:26.695Z,70.30
2022-10-06T05:27:55.560Z,70.10
2022-10-06T05:30:23.312Z,70.10
2022-10-06T05:32:50.568Z,70.10
2022-10-06T05:35:18.410Z,70.10
2022-10-06T05:37:45.134Z,70.10
2022-10-06T05:40:11.943Z,70.90
2022-10-06T05:42:38.568Z,70.10
2022-10-06T05:45:05.443Z,70.50
2022-10-06T05:47:32.143Z,69.90
2022-10-06T05:49:58.815Z,70.30
2022-10-06T05:52:25.486Z,69.70
2022-10-06T05:54:52.333Z,69.70
2022-10-06T05:57:19.036Z,69.60
2022-10-06T05:59:45.673Z,69.50
2022-10-06T06:02:12.492Z,70.70
2022-10-06T06:04:39.280Z,69.50
2022-10-06T06:07:05.969Z,69.50
2022-10-06T06:09:32.663Z,69.50
2022-10-06T06:12:00.228Z,69.80
2022-10-06T06:14:45.828Z,69.50
2022-10-06T06:17:12.630Z,69.60
2022-10-06T06:19:39.332Z,69.50
2022-10-06T06:22:06.012Z,70.20
2022-10-06T06:24:32.682Z,70.10
2022-10-06T06:27:03.412Z,69.30
2022-10-06T06:29:30.080Z,69.40
2022-10-06T06:31:56.751Z,69.40
2022-10-06T06:34:23.463Z,69.40
2022-10-06T06:36:53.682Z,69.60
2022-10-06T06:39:21.511Z,69.20
2022-10-06T06:41:48.974Z,69.20
2022-10-06T06:44:15.786Z,69.20
2022-10-06T06:46:43.539Z,69.00
2022-10-06T06:49:12.074Z,70.00
2022-10-06T06:51:41.578Z,69.70
2022-10-06T06:54:08.871Z,69.60
2022-10-06T06:56:36.057Z,69.30
2022-10-06T06:59:10.855Z,69.10
2022-10-06T07:01:44.491Z,69.10
2022-10-06T07:04:12.725Z,69.10
2022-10-06T07:06:40.520Z,70.60
2022-10-06T07:09:26.148Z,69.20
2022-10-06T07:11:56.884Z,69.10
2022-10-06T07:14:24.375Z,69.20
2022-10-06T07:17:09.988Z,70.60
2022-10-06T07:19:55.603Z,69.70
2022-10-06T07:22:42.606Z,69.10
2022-10-06T07:25:24.345Z,69.30
2022-10-06T07:27:59.482Z,69.30
2022-10-06T07:30:28.180Z,69.30
2022-10-06T07:32:55.297Z,69.20
2022-10-06T07:35:22.820Z,69.00
2022-10-06T07:37:50.189Z,69.30
2022-10-06T07:40:17.311Z,69.40
2022-10-06T07:42:52.099Z,69.20
2022-10-06T07:45:39.091Z,69.10
2022-10-06T07:48:06.834Z,69.50
2022-10-06T07:50:33.623Z,69.40
2022-10-06T07:53:07.701Z,68.90
2022-10-06T07:55:41.916Z,69.10
2022-10-06T07:58:13.674Z,69.10
2022-10-06T08:00:41.029Z,69.10
2022-10-06T08:03:08.622Z,69.00
2022-10-06T08:05:35.313Z,69.00
2022-10-06T08:08:02.051Z,69.00
2022-10-06T08:10:28.697Z,68.80
2022-10-06T08:12:55.337Z,68.60
2022-10-06T08:15:22.004Z,68.70
2022-10-06T08:17:48.661Z,69.30
2022-10-06T08:20:17.123Z,69.40
2022-10-06T08:22:44.036Z,68.70
2022-10-06T08:25:12.367Z,68.60
2022-10-06T08:27:40.497Z,68.70
2022-10-06T08:30:07.663Z,69.00
2022-10-06T08:32:34.497Z,68.70
2022-10-06T08:35:01.472Z,68.80
2022-10-06T08:37:28.134Z,68.60
2022-10-06T08:39:55.052Z,68.60
2022-10-06T08:42:29.917Z,68.60
2022-10-06T08:44:59.511Z,68.60
2022-10-06T08:47:27.946Z,68.70
2022-10-06T08:49:55.399Z,68.50
2022-10-06T08:52:31.503Z,68.50
2022-10-06T08:55:01.497Z,68.50
2022-10-06T08:57:35.619Z,68.50
2022-10-06T09:00:03.448Z,69.10
2022-10-06T09:02:33.157Z,68.50
2022-10-06T09:05:01.332Z,68.50
2022-10-06T09:07:32.188Z,69.00
2022-10-06T09:09:58.876Z,68.40
2022-10-06T09:12:29.511Z,68.60
2022-10-06T09:15:03.401Z,68.20
2022-10-06T09:17:32.354Z,68.30
2022-10-06T09:20:10.195Z,68.10
2022-10-06T09:22:38.055Z,68.20
2022-10-06T09:25:30.817Z,68.90
2022-10-06T09:28:01.308Z,68.20
2022-10-06T09:30:28.072Z,68.20
2022-10-06T09:32:58.864Z,68.20
2022-10-06T09:35:26.973Z,68.20
2022-10-06T09:37:58.035Z,68.00
2022-10-06T09:40:54.522Z,67.50
2022-10-06T09:43:28.320Z,67.20
2022-10-06T09:45:55.814Z,66.80
2022-10-06T09:48:25.109Z,66.40
2022-10-06T09:51:10.919Z,66.20
2022-10-06T09:53:39.705Z,66.20
2022-10-06T09:56:14.649Z,65.90
2022-10-06T09:58:52.567Z,66.00
2022-10-06T10:01:22.760Z,66.60
2022-10-06T10:04:20.484Z,66.00
2022-10-06T10:06:47.892Z,66.20
2022-10-06T10:09:16.661Z,66.00
2022-10-06T10:12:04.556Z,66.50
2022-10-06T10:14:36.604Z,66.30
2022-10-06T10:17:10.790Z,66.40
2022-10-06T10:19:39.339Z,66.40
2022-10-06T10:22:05.997Z,66.30
2022-10-06T10:24:55.122Z,66.80
2022-10-06T10:27:37.231Z,66.60
2022-10-06T10:30:10.775Z,66.60
2022-10-06T10:32:41.806Z,66.60
2022-10-06T10:35:24.657Z,67.20
2022-10-06T10:37:52.067Z,66.70
2022-10-06T10:40:31.064Z,66.80
2022-10-06T10:42:57.759Z,66.90
2022-10-06T10:45:27.202Z,67.20
2022-10-06T10:47:54.276Z,67.10
2022-10-06T10:50:21.089Z,66.80
2022-10-06T10:52:52.071Z,66.70
2022-10-06T10:55:45.260Z,66.70
2022-10-06T10:58:17.782Z,66.60
2022-10-06T11:00:46.103Z,66.50
2022-10-06T11:03:13.040Z,66.50
2022-10-06T11:05:58.719Z,66.50
2022-10-06T11:08:49.485Z,66.80
2022-10-06T11:11:20.775Z,66.90
2022-10-06T11:13:48.888Z,67.00
2022-10-06T11:16:16.274Z,67.10
2022-10-06T11:18:55.053Z,66.90
2022-10-06T11:21:24.842Z,67.00
2022-10-06T11:24:02.536Z,66.90
2022-10-06T11:26:53.454Z,66.80
2022-10-06T11:29:23.280Z,66.80
2022-10-06T11:31:54.644Z,66.80
2022-10-06T11:34:21.356Z,66.70
2022-10-06T11:36:54.477Z,66.80
2022-10-06T11:39:29.784Z,67.20
2022-10-06T11:42:15.322Z,66.80
2022-10-06T11:44:49.912Z,66.90
2022-10-06T11:47:34.331Z,67.00
2022-10-06T11:50:02.715Z,67.10
2022-10-06T11:52:29.419Z,67.00
2022-10-06T11:54:57.829Z,67.10
2022-10-06T11:57:30.693Z,67.20
2022-10-06T12:00:04.084Z,67.20
2022-10-06T12:02:30.862Z,67.30
2022-10-06T12:05:28.451Z,67.10
2022-10-06T12:07:56.818Z,67.20
2022-10-06T12:10:29.481Z,67.10
2022-10-06T12:13:26.143Z,67.20
2022-10-06T12:19:23.654Z,66.80
2022-10-06T12:21:54.073Z,66.90
2022-10-06T12:24:26.704Z,66.90
2022-10-06T12:26:57.632Z,67.00
2022-10-06T12:29:57.131Z,67.40
2022-10-06T12:32:38.839Z,67.10
2022-10-06T12:35:08.688Z,67.00
2022-10-06T12:37:37.620Z,66.90
2022-10-06T12:40:22.952Z,67.00
2022-10-06T12:42:49.616Z,67.00
2022-10-06T12:45:16.622Z,67.30
2022-10-06T12:47:44.801Z,67.20
2022-10-06T12:50:22.202Z,67.60
2022-10-06T12:52:50.786Z,67.20
2022-10-06T12:55:17.448Z,67.40
2022-10-06T12:57:47.920Z,66.90
2022-10-06T13:02:54.240Z,67.00
2022-10-06T13:05:20.990Z,66.70
2022-10-06T13:07:57.333Z,66.40
2022-10-06T13:10:24.180Z,66.80
2022-10-06T13:12:52.297Z,67.30
2022-10-06T13:15:41.502Z,67.00
2022-10-06T13:18:08.140Z,67.10
2022-10-06T13:20:36.675Z,67.60
2022-10-06T13:23:08.803Z,67.10
2022-10-06T13:25:46.362Z,66.70
2022-10-06T13:28:20.247Z,67.60
2022-10-06T13:30:51.581Z,67.00
2022-10-06T13:33:18.757Z,66.80
2022-10-06T13:35:45.890Z,66.70
2022-10-06T13:38:12.674Z,66.50
2022-10-06T13:40:44.218Z,66.60
2022-10-06T13:43:15.633Z,66.80
2022-10-06T13:45:44.686Z,66.80
2022-10-06T13:48:15.181Z,67.00
2022-10-06T13:50:45.920Z,66.80
2022-10-06T13:53:26.832Z,66.80
2022-10-06T13:55:54.019Z,66.80
2022-10-06T13:58:23.952Z,66.80
2022-10-06T14:00:50.752Z,66.80
2022-10-06T14:06:11.322Z,66.70
2022-10-06T14:08:38.397Z,66.80
2022-10-06T14:11:08.488Z,66.50
2022-10-06T14:13:40.213Z,66.40
2022-10-06T14:16:07.954Z,66.30
2022-10-06T14:18:34.716Z,66.20
2022-10-06T14:21:16.268Z,66.70
2022-10-06T14:23:46.845Z,66.50
2022-10-06T14:26:14.288Z,66.20
2022-10-06T14:28:46.018Z,66.10
2022-10-06T14:31:14.726Z,66.20
2022-10-06T14:33:42.113Z,66.20
2022-10-06T14:36:15.109Z,66.10
2022-10-06T14:38:41.776Z,66.00
2022-10-06T14:41:08.528Z,67.30
2022-10-06T14:43:35.171Z,66.00
2022-10-06T14:46:05.465Z,66.30
2022-10-06T14:48:33.057Z,66.10
2022-10-06T14:51:02.089Z,66.30
2022-10-06T14:53:29.179Z,66.10
2022-10-06T14:56:06.751Z,65.90
2022-10-06T14:58:36.073Z,66.50
2022-10-06T15:01:04.145Z,65.90
2022-10-06T15:03:31.054Z,65.80
2022-10-06T15:06:23.630Z,65.80
2022-10-06T15:08:54.291Z,65.70
2022-10-06T15:11:21.909Z,65.80
2022-10-06T15:13:48.993Z,66.20
2022-10-06T15:16:16.612Z,66.20
2022-10-06T15:18:43.782Z,66.00
2022-10-06T15:21:12.688Z,66.10
2022-10-06T15:23:39.536Z,66.20
2022-10-06T15:26:25.151Z,66.00
2022-10-06T15:29:01.000Z,65.80
2022-10-06T15:31:28.980Z,66.30
2022-10-06T15:33:55.663Z,65.90
2022-10-06T15:36:27.340Z,65.90
2022-10-06T15:38:55.301Z,65.80
2022-10-06T15:41:22.302Z,65.60
2022-10-06T15:43:55.209Z,65.50
2022-10-06T15:46:26.181Z,66.70
2022-10-06T15:48:53.699Z,65.60
2022-10-06T15:51:22.043Z,65.60
2022-10-06T15:53:50.463Z,65.70
2022-10-06T15:56:17.467Z,65.90
2022-10-06T15:58:44.504Z,65.90
2022-10-06T16:01:26.383Z,66.20
2022-10-06T16:03:53.545Z,65.80
2022-10-06T16:06:49.506Z,66.00
2022-10-06T16:09:19.077Z,65.90
2022-10-06T16:11:47.185Z,66.10
2022-10-06T16:14:14.483Z,66.10
2022-10-06T16:16:45.387Z,66.10
2022-10-06T16:19:12.403Z,66.20
2022-10-06T16:21:39.535Z,66.30
2022-10-06T16:24:06.262Z,66.20
2022-10-06T16:26:33.035Z,66.10
2022-10-06T16:29:00.279Z,66.10
2022-10-06T16:31:27.171Z,66.20
2022-10-06T16:33:53.979Z,66.20
2022-10-06T16:36:33.450Z,66.30
2022-10-06T16:39:00.119Z,66.30
2022-10-06T16:41:42.383Z,66.40
2022-10-06T16:44:09.199Z,66.30
2022-10-06T16:46:36.015Z,66.30
2022-10-06T16:49:03.280Z,66.40
2022-10-06T16:54:46.014Z,66.50
2022-10-06T16:57:12.792Z,67.50
2022-10-06T16:59:47.297Z,66.50
2022-10-06T17:02:15.856Z,66.00
2022-10-06T17:08:25.774Z,66.50
2022-10-06T17:10:59.486Z,66.20
2022-10-06T17:13:26.229Z,66.60
2022-10-06T17:16:01.997Z,66.50
2022-10-06T17:18:28.889Z,66.60
2022-10-06T17:20:56.751Z,66.60
2022-10-06T17:23:23.941Z,66.60
2022-10-06T17:25:59.264Z,66.70
2022-10-06T17:28:26.013Z,66.80
2022-10-06T17:30:53.603Z,66.60
2022-10-06T17:33:20.644Z,66.60
2022-10-06T17:35:48.626Z,66.70
2022-10-06T17:38:15.300Z,66.90
2022-10-06T17:40:45.224Z,67.00
2022-10-06T17:43:11.928Z,66.70
2022-10-06T17:45:38.985Z,66.90
2022-10-06T17:48:06.541Z,66.60
2022-10-06T17:50:33.277Z,66.70
2022-10-06T17:52:59.915Z,66.40
2022-10-06T17:55:28.235Z,67.10
2022-10-06T17:57:58.531Z,66.60
2022-10-06T18:00:25.485Z,67.10
2022-10-06T18:02:58.212Z,66.60
2022-10-06T18:05:27.470Z,66.50
2022-10-06T18:07:58.731Z,67.10
2022-10-06T18:10:44.043Z,66.60
2022-10-06T18:13:10.777Z,66.50
2022-10-06T18:15:37.609Z,66.50
2022-10-06T18:18:04.740Z,66.40
2022-10-06T18:20:33.424Z,66.40
2022-10-06T18:23:00.010Z,66.80
2022-10-06T18:25:28.493Z,66.30
2022-10-06T18:27:55.229Z,66.20
2022-10-06T18:30:25.717Z,66.10
2022-10-06T18:38:31.941Z,66.20
2022-10-06T18:40:59.918Z,66.10
2022-10-06T18:43:26.684Z,66.20
2022-10-06T18:46:12.198Z,66.30
2022-10-06T18:49:00.557Z,66.50
2022-10-06T18:51:31.808Z,66.10
2022-10-06T18:53:59.378Z,66.20
2022-10-06T18:56:31.419Z,66.30
2022-10-06T18:58:59.116Z,66.20
2022-10-06T19:01:29.734Z,66.30
2022-10-06T19:03:57.990Z,66.40
2022-10-06T19:06:26.874Z,66.40
2022-10-06T19:08:54.728Z,66.30
2022-10-06T19:11:40.216Z,66.50
2022-10-06T19:14:07.215Z,66.50
2022-10-06T19:16:35.669Z,66.50
2022-10-06T19:19:03.731Z,66.60
2022-10-06T19:21:31.501Z,66.40
2022-10-06T19:24:01.009Z,66.50
2022-10-06T19:26:27.646Z,66.50
2022-10-06T19:28:54.380Z,66.40
2022-10-06T19:31:21.193Z,66.10
2022-10-06T19:33:48.140Z,66.00
2022-10-06T19:36:19.910Z,66.10
2022-10-06T19:38:46.899Z,66.00
2022-10-06T19:41:32.099Z,66.10
2022-10-06T19:43:58.741Z,66.00
2022-10-06T19:46:25.444Z,65.90
2022-10-06T19:48:53.363Z,66.00
2022-10-06T19:51:20.459Z,66.00
2022-10-06T19:53:51.326Z,66.70
2022-10-06T19:56:18.821Z,66.60
2022-10-06T19:58:45.679Z,65.90
2022-10-06T20:01:12.450Z,66.40
2022-10-06T20:03:39.933Z,65.90
2022-10-06T20:06:08.028Z,65.90
2022-10-06T20:08:34.833Z,66.00
2022-10-06T20:11:05.532Z,65.90
2022-10-06T20:13:32.895Z,66.00
2022-10-06T20:16:03.947Z,66.20
2022-10-06T20:18:34.544Z,66.20
2022-10-06T20:21:01.279Z,66.20
2022-10-06T20:23:27.957Z,66.00
2022-10-06T20:25:54.596Z,66.00
2022-10-06T20:28:21.632Z,66.20
2022-10-06T20:30:50.228Z,66.00
2022-10-06T20:33:17.235Z,65.90
2022-10-06T20:35:44.127Z,66.00
2022-10-06T20:38:10.788Z,65.80
2022-10-06T20:40:47.104Z,66.10
2022-10-06T20:43:14.018Z,66.00
2022-10-06T20:45:41.133Z,66.20
2022-10-06T20:48:07.981Z,66.10
2022-10-06T20:50:34.707Z,66.10
2022-10-06T20:53:01.472Z,66.00
2022-10-06T20:55:28.152Z,65.90
2022-10-06T20:57:54.921Z,66.00
2022-10-06T21:00:24.188Z,66.00
2022-10-06T21:02:50.954Z,66.60
2022-10-06T21:05:17.880Z,66.10
2022-10-06T21:07:45.147Z,66.00
2022-10-06T21:10:14.019Z,66.00
2022-10-06T21:12:40.819Z,66.00
2022-10-06T21:15:07.836Z,66.00
2022-10-06T21:17:34.534Z,66.00
2022-10-06T21:20:01.297Z,66.20
2022-10-06T21:22:31.367Z,66.60
2022-10-06T21:24:58.127Z,65.90
2022-10-06T21:27:24.892Z,66.10
2022-10-06T21:29:51.591Z,65.90
2022-10-06T21:32:18.632Z,65.70
2022-10-06T21:34:45.375Z,66.70
2022-10-06T21:37:13.608Z,66.30
2022-10-06T21:39:40.317Z,66.60
2022-10-06T21:42:07.183Z,66.20
2022-10-06T21:44:33.821Z,66.60
2022-10-06T21:47:02.671Z,66.60
2022-10-06T21:49:29.530Z,65.80
2022-10-06T21:51:56.485Z,66.00
2022-10-06T21:54:23.405Z,65.80
2022-10-06T21:56:50.383Z,66.20
2022-10-06T21:59:17.460Z,65.70
2022-10-06T22:01:45.120Z,65.70
2022-10-06T22:04:14.145Z,65.90
2022-10-06T22:06:41.241Z,66.10
2022-10-06T22:09:09.132Z,65.60
2022-10-06T22:11:37.407Z,65.50
2022-10-06T22:14:05.182Z,65.50
2022-10-06T22:16:33.036Z,65.80
2022-10-06T22:19:01.605Z,66.00
2022-10-06T22:21:29.593Z,65.60
2022-10-06T22:23:57.400Z,65.90
2022-10-06T22:26:24.637Z,65.60
2022-10-06T22:28:52.580Z,65.60
2022-10-06T22:31:24.811Z,65.60
2022-10-06T22:33:54.222Z,65.60
2022-10-06T22:36:20.916Z,65.60
2022-10-06T22:38:47.813Z,65.60
2022-10-06T22:41:14.758Z,65.40
2022-10-06T22:43:41.446Z,66.00
2022-10-06T22:46:09.049Z,65.50
2022-10-06T22:48:38.337Z,65.40
2022-10-06T22:51:05.545Z,65.30
2022-10-06T22:53:32.468Z,65.60
2022-10-06T22:55:59.752Z,65.50
2022-10-06T22:58:26.868Z,65.50
2022-10-06T23:00:54.074Z,65.50
2022-10-06T23:03:21.349Z,65.60
2022-10-06T23:05:57.887Z,65.50
2022-10-06T23:08:25.160Z,65.60
2022-10-06T23:10:52.188Z,65.40
2022-10-06T23:13:18.964Z,65.60
2022-10-06T23:15:45.668Z,65.50
2022-10-06T23:18:12.313Z,65.30
2022-10-06T23:20:39.015Z,65.40
2022-10-06T23:23:05.738Z,65.40
2022-10-06T23:25:35.920Z,65.40
2022-10-06T23:28:02.649Z,65.40
2022-10-06T23:30:29.383Z,65.40
2022-10-06T23:32:56.069Z,65.60
2022-10-06T23:35:22.797Z,65.70
2022-10-06T23:37:49.449Z,65.90
2022-10-06T23:40:16.128Z,65.80
2022-10-06T23:42:42.817Z,65.80
2022-10-06T23:45:09.759Z,65.80
2022-10-06T23:47:36.403Z,65.80
2022-10-06T23:50:03.125Z,65.60
2022-10-06T23:52:29.822Z,65.50
2022-10-06T23:54:56.524Z,65.80
2022-10-06T23:57:23.180Z,65.60
2022-10-06T23:59:49.870Z,65.70
